Key West, Florida
Current Conditions -  °F | °C
As of 10:53 AM on Friday 24 Oct 2014 (Local Time) from KEYW Reporting Station
Overcast Overcast  
Wind Chill: 79°   Ceiling: 2400
Heat Index: 83°   Visibility: 10mi
Dew Point: 76°   Wind: 14mph
Humidity: 90%   Direction: 30°NNE
Pressure: 29.87"   Gusts: NA
Location:  24.55°N, 81.8°W
Report Text: KEYW 241453Z 03012KT 10SM SCT014 BKN024 OVC038 26/24 A2987 RMK AO2 SLP115 T02610244 53016
Loading
Personal Weather Stations






























Interactive Weather Map New forecast layout! Learn more

10-Day Weather Forecast

Advertisements
Track Severe Weather on mobile